Time;durP1;ratioP1;P1;durP2;ratioP2;P2;SDS_P1;SDS_P2;PMS_P1;PMS_P2;Temp;Humidity;BMP_temperature;BMP_pressure;BME280_temperature;BME280_humidity;BME280_pressure;Samples;Min_cycle;Max_cycle;Signal;HPM_P1;HPM_P2
2021/03/23 00:00:48;;;;;;;12.30;4.60;;;;;;;;;;4905309;28;20334;-76
2021/03/23 00:03:24;;;;;;;11.52;4.60;;;;;;;;;;4890510;28;20039;-77
2021/03/23 00:05:56;;;;;;;11.18;4.45;;;;;;;;;;4885354;29;20047;-78
2021/03/23 00:08:29;;;;;;;10.77;4.07;;;;;;;;;;4892526;28;20032;-76
2021/03/23 00:10:58;;;;;;;10.60;4.13;;;;;;;;;;4897406;28;20044;-76
2021/03/23 00:13:28;;;;;;;11.63;4.20;;;;;;;;;;4891710;28;20069;-78
2021/03/23 00:15:56;;;;;;;11.07;4.85;;;;;;;;;;4885686;28;20155;-79
2021/03/23 00:18:24;;;;;;;9.85;3.67;;;;;;;;;;4914096;28;20700;-78
2021/03/23 00:20:52;;;;;;;9.70;3.72;;;;;;;;;;4919910;28;20031;-78
2021/03/23 00:23:18;;;;;;;10.27;3.75;;;;;;;;;;4916033;28;20030;-78
2021/03/23 00:25:47;;;;;;;11.32;3.55;;;;;;;;;;4917098;28;20063;-78
2021/03/23 00:28:16;;;;;;;11.05;3.67;;;;;;;;;;4896685;29;21508;-78
2021/03/23 00:30:43;;;;;;;14.02;3.38;;;;;;;;;;4893057;29;20036;-79
2021/03/23 00:33:12;;;;;;;9.38;2.85;;;;;;;;;;4891550;29;20092;-78
2021/03/23 00:35:39;;;;;;;9.68;2.80;;;;;;;;;;4893663;29;20033;-78
2021/03/23 00:38:13;;;;;;;10.98;3.72;;;;;;;;;;4897188;29;20986;-79
2021/03/23 00:40:43;;;;;;;9.10;3.40;;;;;;;;;;4864716;29;20118;-79
2021/03/23 00:43:11;;;;;;;8.63;3.33;;;;;;;;;;4889798;29;20032;-78
2021/03/23 00:45:43;;;;;;;9.82;3.30;;;;;;;;;;4897318;29;20035;-78
2021/03/23 00:48:12;;;;;;;13.10;3.55;;;;;;;;;;4880547;29;20043;-78
2021/03/23 00:50:41;;;;;;;8.77;3.08;;;;;;;;;;4873327;29;20071;-78
2021/03/23 00:53:08;;;;;;;11.45;2.85;;;;;;;;;;4903923;29;20130;-79
2021/03/23 00:55:35;;;;;;;11.90;3.42;;;;;;;;;;4891586;29;20158;-79
2021/03/23 00:58:02;;;;;;;10.38;3.50;;;;;;;;;;4880514;29;20040;-77
2021/03/23 01:00:31;;;;;;;11.05;3.30;;;;;;;;;;4901946;29;20067;-78
2021/03/23 01:02:58;;;;;;;10.98;3.42;;;;;;;;;;4884261;29;20047;-79
2021/03/23 01:05:30;;;;;;;9.68;3.10;;;;;;;;;;4889029;29;20111;-78
2021/03/23 01:07:58;;;;;;;10.07;3.10;;;;;;;;;;4880158;29;20473;-78
2021/03/23 01:10:28;;;;;;;10.82;3.17;;;;;;;;;;4898348;29;20063;-79
2021/03/23 01:12:56;;;;;;;13.35;3.33;;;;;;;;;;4883140;29;20131;-78
2021/03/23 01:15:24;;;;;;;10.05;3.13;;;;;;;;;;4879822;29;20133;-77
2021/03/23 01:17:53;;;;;;;10.82;3.22;;;;;;;;;;4863356;29;20411;-77
2021/03/23 01:20:21;;;;;;;10.82;3.00;;;;;;;;;;4889795;28;20037;-78
2021/03/23 01:22:49;;;;;;;10.65;2.70;;;;;;;;;;4895745;29;20048;-78
2021/03/23 01:25:17;;;;;;;10.68;2.95;;;;;;;;;;4892479;28;20033;-78
2021/03/23 01:27:48;;;;;;;9.65;2.92;;;;;;;;;;4891426;29;20052;-77
2021/03/23 01:30:30;;;;;;;10.38;2.90;;;;;;;;;;4899685;29;20121;-78
2021/03/23 01:32:59;;;;;;;9.88;3.42;;;;;;;;;;4884389;29;20141;-78
2021/03/23 01:35:28;;;;;;;11.02;3.00;;;;;;;;;;4884848;29;20038;-78
2021/03/23 01:37:55;;;;;;;9.85;2.63;;;;;;;;;;4891374;29;20099;-79
2021/03/23 01:40:24;;;;;;;10.15;2.90;;;;;;;;;;4895553;28;20468;-77
2021/03/23 01:42:55;;;;;;;9.30;2.72;;;;;;;;;;4888077;29;20127;-78
2021/03/23 01:45:42;;;;;;;8.88;2.30;;;;;;;;;;4873750;29;20044;-77
2021/03/23 01:48:20;;;;;;;6.30;2.03;;;;;;;;;;4886499;28;20477;-76
2021/03/23 02:29:31;;;;;;;7.80;2.20;;;;;;;;;;4859675;29;20071;-75
2021/03/23 02:32:01;;;;;;;7.82;2.40;;;;;;;;;;4878295;29;20266;-77
2021/03/23 02:34:28;;;;;;;12.18;2.35;;;;;;;;;;4874966;29;20118;-78
2021/03/23 02:36:57;;;;;;;8.80;2.13;;;;;;;;;;4887648;29;20043;-78
2021/03/23 02:39:27;;;;;;;14.48;2.47;;;;;;;;;;4876964;29;20036;-77
2021/03/23 02:41:58;;;;;;;11.57;2.28;;;;;;;;;;4873312;29;20036;-78
2021/03/23 02:44:26;;;;;;;11.65;2.28;;;;;;;;;;4876251;29;20031;-78
2021/03/23 02:46:55;;;;;;;7.15;2.00;;;;;;;;;;4878936;29;20032;-75
2021/03/23 02:49:24;;;;;;;8.02;2.25;;;;;;;;;;4871591;29;20104;-75
2021/03/23 02:51:55;;;;;;;10.55;2.60;;;;;;;;;;4877823;29;20044;-76
2021/03/23 02:54:28;;;;;;;10.52;2.50;;;;;;;;;;4866251;29;20047;-76
2021/03/23 02:56:55;;;;;;;9.40;2.25;;;;;;;;;;4877870;29;20076;-76
2021/03/23 02:59:24;;;;;;;8.15;2.10;;;;;;;;;;4871445;29;20095;-76
2021/03/23 03:01:54;;;;;;;10.52;2.30;;;;;;;;;;4888882;29;20028;-78
2021/03/23 03:04:22;;;;;;;10.07;2.45;;;;;;;;;;4868207;29;20048;-76
2021/03/23 03:06:48;;;;;;;9.45;2.38;;;;;;;;;;4870801;29;20100;-76
2021/03/23 03:09:16;;;;;;;10.48;2.50;;;;;;;;;;4864123;29;20044;-77
2021/03/23 03:11:46;;;;;;;9.75;2.45;;;;;;;;;;4878437;29;20098;-77
2021/03/23 03:14:17;;;;;;;13.18;2.65;;;;;;;;;;4861992;29;20174;-77
2021/03/23 03:16:44;;;;;;;12.75;2.35;;;;;;;;;;4849149;29;20047;-77
2021/03/23 03:19:12;;;;;;;10.85;2.65;;;;;;;;;;4863719;29;20159;-76
2021/03/23 03:21:38;;;;;;;9.40;2.42;;;;;;;;;;4820885;29;20065;-76
2021/03/23 03:24:05;;;;;;;;;;;;;;;;;;4846787;29;20129;-76
2021/03/23 03:26:34;;;;;;;9.30;2.30;;;;;;;;;;4866122;29;19918;-76
2021/03/23 03:29:02;;;;;;;9.68;2.20;;;;;;;;;;4861165;29;20235;-77
2021/03/23 03:31:34;;;;;;;9.90;2.25;;;;;;;;;;4869277;29;20871;-77
2021/03/23 03:34:01;;;;;;;8.52;2.10;;;;;;;;;;4863034;29;20604;-77
2021/03/23 03:36:29;;;;;;;10.18;2.28;;;;;;;;;;4884148;29;20044;-77
2021/03/23 03:38:56;;;;;;;10.77;2.25;;;;;;;;;;4882797;29;20123;-77
2021/03/23 03:41:23;;;;;;;7.45;2.20;;;;;;;;;;4856788;29;20040;-76
2021/03/23 03:43:53;;;;;;;9.25;2.13;;;;;;;;;;4886936;29;20044;-77
2021/03/23 03:46:20;;;;;;;10.98;2.28;;;;;;;;;;4866313;29;20127;-75
2021/03/23 03:48:48;;;;;;;6.70;2.10;;;;;;;;;;4882455;29;20539;-76
2021/03/23 03:51:16;;;;;;;8.52;2.13;;;;;;;;;;4869826;29;20187;-76
2021/03/23 03:53:45;;;;;;;8.27;2.00;;;;;;;;;;4881372;29;20501;-77
2021/03/23 03:56:13;;;;;;;8.73;2.13;;;;;;;;;;4866402;29;20784;-76
2021/03/23 03:58:39;;;;;;;10.40;2.20;;;;;;;;;;4884134;29;20044;-76
2021/03/23 04:01:08;;;;;;;8.05;2.33;;;;;;;;;;4874717;29;20036;-77
2021/03/23 04:03:37;;;;;;;9.68;2.28;;;;;;;;;;4882240;29;20040;-76
2021/03/23 04:06:03;;;;;;;11.10;2.53;;;;;;;;;;4877062;28;20047;-76
2021/03/23 04:08:29;;;;;;;;;;;;;;;;;;4879045;29;20394;-76
2021/03/23 04:10:58;;;;;;;10.05;2.53;;;;;;;;;;4873523;29;21750;-77
2021/03/23 04:13:25;;;;;;;8.18;2.13;;;;;;;;;;4874989;29;20044;-77
2021/03/23 04:15:56;;;;;;;7.80;2.30;;;;;;;;;;4861761;29;20040;-76
2021/03/23 04:18:23;;;;;;;8.40;2.38;;;;;;;;;;4861605;29;20041;-76
2021/03/23 04:20:51;;;;;;;9.80;2.45;;;;;;;;;;4863341;29;20052;-76
2021/03/23 04:23:23;;;;;;;9.02;2.10;;;;;;;;;;4886939;28;20047;-77
2021/03/23 04:25:51;;;;;;;9.38;2.53;;;;;;;;;;4879844;29;20036;-76
2021/03/23 04:28:18;;;;;;;8.07;2.05;;;;;;;;;;4831038;29;20115;-77
2021/03/23 04:30:47;;;;;;;9.13;2.20;;;;;;;;;;4917152;28;20047;-76
2021/03/23 04:33:14;;;;;;;10.10;3.00;;;;;;;;;;4881038;29;20096;-76
2021/03/23 04:35:52;;;;;;;8.25;2.95;;;;;;;;;;4897817;29;20043;-77
2021/03/23 04:38:20;;;;;;;10.15;3.30;;;;;;;;;;4899471;29;20607;-76
2021/03/23 04:40:47;;;;;;;12.10;3.38;;;;;;;;;;4900704;29;21377;-76
2021/03/23 04:43:28;;;;;;;11.40;3.63;;;;;;;;;;4897095;29;20040;-77
2021/03/23 04:45:57;;;;;;;7.55;2.55;;;;;;;;;;4883472;29;20050;-76
2021/03/23 04:48:25;;;;;;;7.35;2.25;;;;;;;;;;4882039;29;20039;-77
2021/03/23 04:50:53;;;;;;;9.82;2.20;;;;;;;;;;4880391;29;20083;-76
2021/03/23 04:53:25;;;;;;;8.00;2.25;;;;;;;;;;4899755;28;20028;-76
2021/03/23 04:55:53;;;;;;;8.63;2.15;;;;;;;;;;4903470;29;20032;-75
2021/03/23 04:58:20;;;;;;;7.35;2.25;;;;;;;;;;4878765;29;20091;-76
2021/03/23 05:00:47;;;;;;;11.27;3.00;;;;;;;;;;4900086;29;20039;-76
2021/03/23 05:03:17;;;;;;;7.50;2.55;;;;;;;;;;4889418;28;20050;-76
2021/03/23 05:05:45;;;;;;;9.75;2.95;;;;;;;;;;4885223;29;20032;-76
2021/03/23 05:08:11;;;;;;;11.48;3.80;;;;;;;;;;4893051;29;20035;-76
2021/03/23 05:10:40;;;;;;;9.07;3.28;;;;;;;;;;4883158;29;20036;-76
2021/03/23 05:13:10;;;;;;;9.43;3.47;;;;;;;;;;4873591;29;20212;-76
2021/03/23 05:15:37;;;;;;;9.73;4.38;;;;;;;;;;4887476;29;20027;-76
2021/03/23 05:18:04;;;;;;;11.77;3.80;;;;;;;;;;4883491;29;20052;-76
2021/03/23 05:20:34;;;;;;;10.07;3.67;;;;;;;;;;4898704;29;20043;-76
2021/03/23 05:23:01;;;;;;;11.63;3.17;;;;;;;;;;4881377;29;20036;-76
2021/03/23 05:25:28;;;;;;;12.82;3.40;;;;;;;;;;4861603;29;20051;-76
2021/03/23 05:27:56;;;;;;;10.13;3.22;;;;;;;;;;4864377;29;20052;-77
2021/03/23 05:30:25;;;;;;;9.30;3.20;;;;;;;;;;4865581;29;20127;-76
2021/03/23 05:32:52;;;;;;;11.65;3.75;;;;;;;;;;4852304;29;20489;-76
2021/03/23 05:35:20;;;;;;;;;;;;;;;;;;4854541;29;20728;-76
2021/03/23 05:37:46;;;;;;;;;;;;;;;;;;4854286;29;20010;-76
2021/03/23 05:40:36;;;;;;;14.32;5.07;;;;;;;;;;4858760;29;20132;-75
2021/03/23 05:43:21;;;;;;;14.85;4.80;;;;;;;;;;4846218;29;20170;-77
2021/03/23 05:45:47;;;;;;;12.52;4.68;;;;;;;;;;4830052;29;20052;-76
2021/03/23 05:48:14;;;;;;;;;;;;;;;;;;4838464;29;20069;-77
2021/03/23 05:50:45;;;;;;;15.30;4.80;;;;;;;;;;4848664;29;19963;-76
2021/03/23 05:53:15;;;;;;;13.65;5.57;;;;;;;;;;4823973;29;20062;-76
2021/03/23 05:55:52;;;;;;;14.60;4.88;;;;;;;;;;4865299;29;20124;-78
2021/03/23 05:58:23;;;;;;;14.15;5.15;;;;;;;;;;4878236;29;20039;-76
2021/03/23 06:01:08;;;;;;;13.32;4.50;;;;;;;;;;4880651;29;20067;-77
2021/03/23 06:03:36;;;;;;;14.90;4.72;;;;;;;;;;4881808;29;20032;-77
2021/03/23 06:06:22;;;;;;;14.75;5.13;;;;;;;;;;4878334;29;20041;-77
2021/03/23 06:08:51;;;;;;;11.45;4.32;;;;;;;;;;4873660;29;20848;-77
2021/03/23 06:11:27;;;;;;;15.52;5.00;;;;;;;;;;4845065;29;20503;-78
2021/03/23 06:14:17;;;;;;;12.88;5.15;;;;;;;;;;4870749;29;20134;-77
2021/03/23 06:17:05;;;;;;;12.77;4.35;;;;;;;;;;4864954;29;20169;-75
2021/03/23 06:19:57;;;;;;;16.40;4.65;;;;;;;;;;4876640;29;20028;-76
2021/03/23 06:22:55;;;;;;;15.55;4.28;;;;;;;;;;4870334;29;20046;-77
2021/03/23 06:25:42;;;;;;;17.23;4.20;;;;;;;;;;4898426;29;20149;-77
2021/03/23 06:28:23;;;;;;;14.02;4.07;;;;;;;;;;4870553;29;20055;-77
2021/03/23 06:31:12;;;;;;;14.00;4.32;;;;;;;;;;4900337;29;20035;-77
2021/03/23 06:33:39;;;;;;;16.20;4.53;;;;;;;;;;4903609;29;20094;-77
2021/03/23 06:36:10;;;;;;;14.80;4.60;;;;;;;;;;4900450;29;20152;-76
2021/03/23 06:38:38;;;;;;;13.32;4.30;;;;;;;;;;4906995;28;20043;-77
2021/03/23 06:41:13;;;;;;;13.60;3.58;;;;;;;;;;4886623;29;20799;-76
2021/03/23 06:43:42;;;;;;;13.32;3.95;;;;;;;;;;4899759;28;20065;-76
2021/03/23 06:46:39;;;;;;;15.60;3.97;;;;;;;;;;4891995;29;20500;-77
2021/03/23 06:49:07;;;;;;;;;;;;;;;;;;4906393;29;20043;-77
2021/03/23 06:51:59;;;;;;;13.95;4.43;;;;;;;;;;4894285;29;19925;-76
2021/03/23 06:54:27;;;;;;;14.43;3.80;;;;;;;;;;4870872;28;20036;-77
2021/03/23 06:57:14;;;;;;;15.15;5.10;;;;;;;;;;4859577;29;20107;-77
2021/03/23 07:00:15;;;;;;;10.95;3.58;;;;;;;;;;4902236;29;20455;-77
2021/03/23 07:02:49;;;;;;;14.38;3.78;;;;;;;;;;4856220;29;20043;-77
2021/03/23 07:05:35;;;;;;;13.15;4.20;;;;;;;;;;4903079;29;20040;-78
2021/03/23 07:08:19;;;;;;;16.52;4.38;;;;;;;;;;4862125;29;20052;-77
2021/03/23 07:10:57;;;;;;;16.63;4.93;;;;;;;;;;4899963;29;20031;-76
2021/03/23 07:13:31;;;;;;;12.30;3.47;;;;;;;;;;4898115;28;20095;-77
2021/03/23 07:16:02;;;;;;;15.15;4.38;;;;;;;;;;4909188;28;20130;-77
2021/03/23 07:18:31;;;;;;;13.27;5.60;;;;;;;;;;4898300;29;20099;-77
2021/03/23 07:21:23;;;;;;;18.00;6.72;;;;;;;;;;4898161;28;20042;-79
2021/03/23 07:24:09;;;;;;;15.60;5.80;;;;;;;;;;4863968;29;20080;-77
2021/03/23 07:26:41;;;;;;;15.38;4.88;;;;;;;;;;4854376;29;20036;-79
2021/03/23 07:29:43;;;;;;;18.10;5.18;;;;;;;;;;4862092;29;20051;-79
2021/03/23 07:32:13;;;;;;;14.90;5.45;;;;;;;;;;4874576;29;20595;-78
2021/03/23 07:35:00;;;;;;;15.93;3.72;;;;;;;;;;4811595;29;20052;-78
2021/03/23 07:37:51;;;;;;;12.05;3.08;;;;;;;;;;4831660;29;20042;-78
2021/03/23 07:40:37;;;;;;;15.95;3.45;;;;;;;;;;4813854;29;20054;-78
2021/03/23 07:43:15;;;;;;;16.75;3.78;;;;;;;;;;4796590;29;20128;-79
2021/03/23 07:45:45;;;;;;;20.73;4.13;;;;;;;;;;4784428;29;20541;-78
2021/03/23 07:48:33;;;;;;;15.38;3.63;;;;;;;;;;4811064;29;20321;-78
2021/03/23 07:51:24;;;;;;;18.83;4.90;;;;;;;;;;4815254;29;20082;-78
2021/03/23 07:53:51;;;;;;;14.57;3.95;;;;;;;;;;4812173;29;20034;-78
2021/03/23 07:56:38;;;;;;;15.48;4.28;;;;;;;;;;4831168;29;20048;-78
2021/03/23 07:59:21;;;;;;;14.35;3.58;;;;;;;;;;4816743;29;20049;-78
2021/03/23 08:02:00;;;;;;;15.20;3.95;;;;;;;;;;4834293;29;20046;-78
2021/03/23 08:04:45;;;;;;;15.02;4.18;;;;;;;;;;4832048;29;20038;-78
2021/03/23 08:07:16;;;;;;;11.93;2.67;;;;;;;;;;4826008;29;20721;-78
2021/03/23 08:09:57;;;;;;;13.75;3.28;;;;;;;;;;4815124;29;20084;-79
2021/03/23 08:12:38;;;;;;;14.60;3.15;;;;;;;;;;4838705;29;20049;-77
2021/03/23 08:15:12;;;;;;;12.63;2.97;;;;;;;;;;4811836;29;20056;-77
2021/03/23 08:17:55;;;;;;;9.18;2.17;;;;;;;;;;4831717;29;20142;-79
2021/03/23 08:20:25;;;;;;;13.80;2.60;;;;;;;;;;4854188;29;20041;-79
2021/03/23 08:23:12;;;;;;;10.63;2.65;;;;;;;;;;4870573;29;20196;-78
2021/03/23 08:25:56;;;;;;;11.07;2.78;;;;;;;;;;4888449;28;20055;-79
2021/03/23 08:28:43;;;;;;;11.15;2.58;;;;;;;;;;4902442;28;20051;-78
2021/03/23 08:31:19;;;;;;;10.85;3.20;;;;;;;;;;4916212;28;20143;-78
2021/03/23 08:34:06;;;;;;;21.55;10.02;;;;;;;;;;4907389;28;20113;-79
2021/03/23 08:36:51;;;;;;;18.58;7.07;;;;;;;;;;4912605;28;20039;-79
2021/03/23 08:39:40;;;;;;;14.43;4.47;;;;;;;;;;4908486;28;20045;-78
2021/03/23 08:42:14;;;;;;;13.23;3.00;;;;;;;;;;4912453;28;20479;-78
2021/03/23 08:44:44;;;;;;;10.45;2.80;;;;;;;;;;4901602;28;20036;-78
2021/03/23 08:47:29;;;;;;;13.38;3.17;;;;;;;;;;4916052;28;20043;-78
2021/03/23 08:50:02;;;;;;;11.63;2.88;;;;;;;;;;4894858;28;20039;-77
2021/03/23 08:52:42;;;;;;;13.18;3.10;;;;;;;;;;4884568;28;20998;-77
2021/03/23 08:55:31;;;;;;;11.75;3.00;;;;;;;;;;4887020;28;20203;-78
2021/03/23 08:57:58;;;;;;;11.32;2.30;;;;;;;;;;4904521;28;20046;-79
2021/03/23 09:00:43;;;;;;;9.57;2.20;;;;;;;;;;4901408;28;20036;-79
2021/03/23 09:03:10;;;;;;;11.32;2.67;;;;;;;;;;4917078;28;20136;-78
2021/03/23 09:05:53;;;;;;;9.43;2.78;;;;;;;;;;4920266;28;20047;-78
2021/03/23 09:08:33;;;;;;;12.57;2.80;;;;;;;;;;4903713;28;20101;-79
2021/03/23 09:11:12;;;;;;;16.95;4.13;;;;;;;;;;4922809;28;20035;-79
2021/03/23 09:13:38;;;;;;;11.75;2.80;;;;;;;;;;4906820;28;20036;-78
2021/03/23 09:16:16;;;;;;;11.57;2.50;;;;;;;;;;4915479;28;20407;-77
2021/03/23 09:19:03;;;;;;;9.85;2.20;;;;;;;;;;4898314;28;20085;-77
2021/03/23 09:21:29;;;;;;;;;;;;;;;;;;4912831;28;20036;-76
2021/03/23 09:23:59;;;;;;;13.48;3.10;;;;;;;;;;4918686;28;19926;-77
2021/03/23 09:26:34;;;;;;;11.57;2.75;;;;;;;;;;4914147;28;20428;-77
2021/03/23 09:29:19;;;;;;;9.60;2.88;;;;;;;;;;4896714;28;20146;-79
2021/03/23 09:31:49;;;;;;;10.93;2.78;;;;;;;;;;4897339;28;20042;-79
2021/03/23 09:34:48;;;;;;;10.32;2.70;;;;;;;;;;4883411;29;20127;-76
2021/03/23 09:37:32;;;;;;;10.13;2.65;;;;;;;;;;4863731;29;20162;-79
2021/03/23 09:40:00;;;;;;;9.85;2.30;;;;;;;;;;4889346;28;20046;-79
2021/03/23 09:42:35;;;;;;;10.05;2.40;;;;;;;;;;4901744;28;20090;-80
2021/03/23 09:45:24;;;;;;;11.40;2.53;;;;;;;;;;4893550;28;20051;-78
2021/03/23 09:48:03;;;;;;;9.30;2.20;;;;;;;;;;4908754;28;20036;-81
2021/03/23 09:50:41;;;;;;;11.65;2.80;;;;;;;;;;4912278;28;20039;-77
2021/03/23 09:53:24;;;;;;;11.90;2.40;;;;;;;;;;4904630;28;20229;-78
2021/03/23 09:55:52;;;;;;;10.18;2.78;;;;;;;;;;4892998;28;20039;-79
2021/03/23 09:58:28;;;;;;;11.23;2.80;;;;;;;;;;4903453;28;20098;-78
2021/03/23 10:01:16;;;;;;;11.82;3.13;;;;;;;;;;4899261;28;20042;-79
2021/03/23 10:03:44;;;;;;;11.75;2.92;;;;;;;;;;4917499;28;20043;-78
2021/03/23 10:06:20;;;;;;;9.15;2.70;;;;;;;;;;4899330;28;20048;-78
2021/03/23 10:08:52;;;;;;;12.57;3.00;;;;;;;;;;4880874;29;20114;-78
2021/03/23 10:11:20;;;;;;;10.18;2.75;;;;;;;;;;4905218;28;20024;-79
2021/03/23 10:14:01;;;;;;;9.48;2.20;;;;;;;;;;4870792;28;20047;-78
2021/03/23 10:16:33;;;;;;;9.57;2.25;;;;;;;;;;4897006;28;20038;-78
2021/03/23 10:19:01;;;;;;;9.40;2.42;;;;;;;;;;4882470;29;20814;-80
2021/03/23 10:21:30;;;;;;;12.48;2.40;;;;;;;;;;4898575;29;20330;-79
2021/03/23 10:24:11;;;;;;;10.05;2.45;;;;;;;;;;4904985;28;20074;-79
2021/03/23 10:26:41;;;;;;;7.72;1.90;;;;;;;;;;4904398;28;20039;-76
2021/03/23 10:29:32;;;;;;;9.73;2.15;;;;;;;;;;4901190;28;20055;-77
2021/03/23 10:32:17;;;;;;;7.57;2.10;;;;;;;;;;4908432;28;20047;-76
2021/03/23 10:35:02;;;;;;;9.77;2.20;;;;;;;;;;4899085;28;20070;-76
2021/03/23 10:37:32;;;;;;;7.40;1.83;;;;;;;;;;4914188;28;20073;-76
2021/03/23 10:40:01;;;;;;;10.45;2.15;;;;;;;;;;4894691;28;20031;-77
2021/03/23 10:42:34;;;;;;;13.45;2.80;;;;;;;;;;4885774;28;20202;-76
2021/03/23 10:45:37;;;;;;;9.02;2.22;;;;;;;;;;4903455;28;20031;-76
2021/03/23 10:48:24;;;;;;;8.60;2.20;;;;;;;;;;4861108;29;20123;-76
2021/03/23 10:51:12;;;;;;;10.25;2.28;;;;;;;;;;4848079;29;20081;-77
2021/03/23 10:53:39;;;;;;;10.02;1.92;;;;;;;;;;4846677;29;20055;-77
2021/03/23 10:56:20;;;;;;;16.63;2.08;;;;;;;;;;4818606;29;20033;-76
2021/03/23 10:59:09;;;;;;;7.05;2.00;;;;;;;;;;4852712;29;20037;-76
2021/03/23 11:01:37;;;;;;;9.13;2.05;;;;;;;;;;4859225;29;20040;-76
2021/03/23 11:04:18;;;;;;;9.30;1.92;;;;;;;;;;4864831;29;20067;-76
2021/03/23 11:06:45;;;;;;;7.53;1.98;;;;;;;;;;4860552;29;20032;-76
2021/03/23 11:09:19;;;;;;;6.95;1.73;;;;;;;;;;4831305;29;20674;-77
2021/03/23 11:11:52;;;;;;;8.98;2.03;;;;;;;;;;4828284;29;20795;-76
2021/03/23 11:14:19;;;;;;;7.47;1.52;;;;;;;;;;4841149;29;20100;-77
2021/03/23 11:16:47;;;;;;;7.85;1.88;;;;;;;;;;4863565;29;20164;-77
2021/03/23 11:19:27;;;;;;;7.90;1.83;;;;;;;;;;4844668;29;23305;-77
2021/03/23 11:21:59;;;;;;;8.05;1.88;;;;;;;;;;4847204;28;20138;-77
2021/03/23 11:24:28;;;;;;;7.43;1.92;;;;;;;;;;4900072;28;20032;-76
2021/03/23 11:27:00;;;;;;;11.40;2.30;;;;;;;;;;4911965;28;20126;-77
2021/03/23 11:29:28;;;;;;;10.43;2.10;;;;;;;;;;4912566;28;20039;-78
2021/03/23 11:31:56;;;;;;;9.88;1.90;;;;;;;;;;4903136;28;20047;-78
2021/03/23 11:34:23;;;;;;;12.45;2.42;;;;;;;;;;4907880;28;20035;-76
2021/03/23 11:36:53;;;;;;;7.88;1.92;;;;;;;;;;4868205;29;20055;-77
2021/03/23 11:39:24;;;;;;;7.95;1.77;;;;;;;;;;4904608;28;20052;-77
2021/03/23 11:42:06;;;;;;;10.52;2.00;;;;;;;;;;4893645;29;20036;-77
2021/03/23 11:44:40;;;;;;;7.38;1.77;;;;;;;;;;4889153;28;20040;-77
2021/03/23 11:47:42;;;;;;;8.88;2.22;;;;;;;;;;4894982;28;20065;-77
2021/03/23 11:50:19;;;;;;;15.40;2.20;;;;;;;;;;4822905;29;20040;-77
2021/03/23 11:52:46;;;;;;;;;;;;;;;;;;4828375;29;20042;-76
2021/03/23 11:55:18;;;;;;;10.25;2.28;;;;;;;;;;4823118;29;20474;-77
2021/03/23 11:57:48;;;;;;;8.07;2.03;;;;;;;;;;4809209;29;20057;-75
2021/03/23 12:00:17;;;;;;;9.75;1.88;;;;;;;;;;4796421;29;20053;-76
2021/03/23 12:02:46;;;;;;;9.98;2.03;;;;;;;;;;4771728;29;20169;-76
2021/03/23 12:05:13;;;;;;;8.82;2.08;;;;;;;;;;4810144;29;20052;-75
2021/03/23 12:07:57;;;;;;;8.63;2.30;;;;;;;;;;4804476;29;20034;-78
2021/03/23 12:10:48;;;;;;;9.25;1.58;;;;;;;;;;4808449;29;20033;-76
2021/03/23 12:13:25;;;;;;;7.07;1.42;;;;;;;;;;4762010;29;20462;-78
2021/03/23 12:15:59;;;;;;;6.40;1.60;;;;;;;;;;4790747;29;20035;-80
2021/03/23 12:18:32;;;;;;;7.68;1.70;;;;;;;;;;4772045;29;20046;-81
2021/03/23 12:21:00;;;;;;;7.80;1.55;;;;;;;;;;4769548;29;20046;-82
2021/03/23 12:23:31;;;;;;;11.48;1.70;;;;;;;;;;4778976;29;20126;-82
2021/03/23 12:26:00;;;;;;;6.95;1.33;;;;;;;;;;4780315;29;20141;-82
2021/03/23 12:28:30;;;;;;;5.22;1.48;;;;;;;;;;4783671;29;20848;-81
2021/03/23 12:31:02;;;;;;;9.48;1.75;;;;;;;;;;4758201;29;20658;-81
2021/03/23 12:33:33;;;;;;;7.28;1.58;;;;;;;;;;4736851;29;20039;-82
2021/03/23 12:36:00;;;;;;;8.43;1.52;;;;;;;;;;4729588;29;20055;-82
2021/03/23 12:38:27;;;;;;;8.10;1.70;;;;;;;;;;4769133;29;20054;-81
2021/03/23 12:40:54;;;;;;;8.05;1.75;;;;;;;;;;4761473;29;20404;-82
2021/03/23 12:43:27;;;;;;;8.20;1.80;;;;;;;;;;4753942;29;20046;-82
2021/03/23 12:45:56;;;;;;;8.60;2.00;;;;;;;;;;4732428;29;20095;-81
2021/03/23 12:48:25;;;;;;;6.88;1.80;;;;;;;;;;4763307;29;20041;-82
2021/03/23 12:50:56;;;;;;;8.60;1.95;;;;;;;;;;4834308;29;20115;-82
2021/03/23 12:53:23;;;;;;;8.45;1.80;;;;;;;;;;4854985;29;20406;-82
2021/03/23 12:55:56;;;;;;;8.88;1.88;;;;;;;;;;4806602;29;20053;-82
2021/03/23 12:58:34;;;;;;;10.20;2.70;;;;;;;;;;4849761;29;20076;-83
2021/03/23 13:01:02;;;;;;;7.28;1.50;;;;;;;;;;4833969;29;20385;-82
2021/03/23 13:03:30;;;;;;;14.35;2.28;;;;;;;;;;4851510;29;20063;-83
2021/03/23 13:05:59;;;;;;;7.88;1.98;;;;;;;;;;4847744;29;20603;-83
2021/03/23 13:08:38;;;;;;;8.75;1.80;;;;;;;;;;4850521;29;20148;-85
2021/03/23 13:11:07;;;;;;;7.13;1.60;;;;;;;;;;4842070;29;20041;-82
2021/03/23 13:13:41;;;;;;;6.60;1.83;;;;;;;;;;4811400;29;20595;-83
2021/03/23 13:16:13;;;;;;;8.15;2.00;;;;;;;;;;4813535;29;20087;-83
2021/03/23 13:18:40;;;;;;;8.70;2.30;;;;;;;;;;4880644;29;20039;-83
2021/03/23 13:21:09;;;;;;;6.90;2.38;;;;;;;;;;4862013;29;20046;-84
2021/03/23 13:26:30;;;;;;;7.43;1.63;;;;;;;;;;4891895;28;20047;-80
2021/03/23 13:29:05;;;;;;;8.02;1.70;;;;;;;;;;4892288;29;20044;-80
2021/03/23 13:31:34;;;;;;;6.70;1.65;;;;;;;;;;4849591;29;20067;-79
2021/03/23 13:34:01;;;;;;;9.18;1.83;;;;;;;;;;4891286;28;20044;-77
2021/03/23 13:36:57;;;;;;;8.73;1.63;;;;;;;;;;4888913;28;20052;-78
2021/03/23 13:42:38;;;;;;;6.47;1.50;;;;;;;;;;4817263;29;20153;-80
2021/03/23 13:45:24;;;;;;;6.88;1.50;;;;;;;;;;4828697;29;20116;-82
2021/03/23 13:47:57;;;;;;;7.45;1.65;;;;;;;;;;4843414;29;20039;-81
2021/03/23 13:50:25;;;;;;;9.10;1.70;;;;;;;;;;4840315;29;20447;-80
2021/03/23 13:52:56;;;;;;;6.90;1.73;;;;;;;;;;4803911;29;20457;-81
2021/03/23 13:55:33;;;;;;;8.10;1.50;;;;;;;;;;4802216;29;20480;-83
2021/03/23 13:58:01;;;;;;;7.10;1.65;;;;;;;;;;4835430;29;20044;-78
2021/03/23 14:00:33;;;;;;;7.82;1.77;;;;;;;;;;4819418;29;20145;-78
2021/03/23 14:03:00;;;;;;;6.28;1.60;;;;;;;;;;4823049;29;20078;-78
2021/03/23 14:05:28;;;;;;;9.45;2.15;;;;;;;;;;4819403;29;20045;-79
2021/03/23 14:07:55;;;;;;;7.43;1.65;;;;;;;;;;4807379;29;20030;-78
2021/03/23 14:10:23;;;;;;;9.43;2.10;;;;;;;;;;4794840;29;20049;-78
2021/03/23 14:12:57;;;;;;;7.68;1.70;;;;;;;;;;4801854;29;20234;-77
2021/03/23 14:15:27;;;;;;;10.55;1.85;;;;;;;;;;4810748;29;20078;-78
2021/03/23 14:17:55;;;;;;;6.65;1.50;;;;;;;;;;4779874;29;20066;-77
2021/03/23 14:20:24;;;;;;;8.77;1.70;;;;;;;;;;4829388;29;20111;-78
2021/03/23 14:22:59;;;;;;;8.13;1.80;;;;;;;;;;4869694;29;20047;-76
2021/03/23 14:25:28;;;;;;;9.23;1.95;;;;;;;;;;4838384;29;20037;-77
2021/03/23 14:28:00;;;;;;;7.63;1.60;;;;;;;;;;4870043;29;20044;-77
2021/03/23 14:30:30;;;;;;;9.65;2.10;;;;;;;;;;4851789;29;20425;-77
2021/03/23 14:32:59;;;;;;;7.18;1.80;;;;;;;;;;4874570;29;20087;-78
2021/03/23 14:35:28;;;;;;;8.07;1.88;;;;;;;;;;4880494;29;20571;-79
2021/03/23 14:38:00;;;;;;;9.95;2.15;;;;;;;;;;4888000;29;20052;-77
2021/03/23 14:40:33;;;;;;;13.15;2.60;;;;;;;;;;4884817;29;20036;-78
2021/03/23 14:43:05;;;;;;;8.27;1.88;;;;;;;;;;4878900;29;20071;-77
2021/03/23 14:45:33;;;;;;;8.55;1.98;;;;;;;;;;4894273;29;20036;-79
2021/03/23 14:48:03;;;;;;;10.35;1.95;;;;;;;;;;4858619;29;20076;-77
2021/03/23 14:50:31;;;;;;;7.47;1.92;;;;;;;;;;4883127;28;20078;-77
2021/03/23 14:53:00;;;;;;;7.30;2.05;;;;;;;;;;4881279;29;20072;-78
2021/03/23 14:55:40;;;;;;;10.48;2.47;;;;;;;;;;4883800;29;20794;-78
2021/03/23 14:58:08;;;;;;;8.73;1.77;;;;;;;;;;4897975;29;20044;-77
2021/03/23 15:00:39;;;;;;;11.73;2.20;;;;;;;;;;4901621;29;20037;-77
2021/03/23 15:03:23;;;;;;;8.68;1.98;;;;;;;;;;4873450;28;20164;-79
2021/03/23 15:05:57;;;;;;;9.38;1.85;;;;;;;;;;4899488;29;20473;-79
2021/03/23 15:08:33;;;;;;;7.32;1.65;;;;;;;;;;4903882;29;20047;-80
2021/03/23 15:11:03;;;;;;;8.65;2.00;;;;;;;;;;4900995;28;20054;-81
2021/03/23 15:13:40;;;;;;;9.63;1.98;;;;;;;;;;4874573;29;20044;-79
2021/03/23 15:16:09;;;;;;;8.85;2.00;;;;;;;;;;4872911;29;20111;-81
2021/03/23 15:18:36;;;;;;;8.15;2.17;;;;;;;;;;4882100;29;20046;-81
2021/03/23 15:21:14;;;;;;;12.52;2.40;;;;;;;;;;4904887;28;20076;-80
2021/03/23 15:23:46;;;;;;;7.90;2.10;;;;;;;;;;4893403;29;20023;-81
2021/03/23 15:26:34;;;;;;;8.77;2.20;;;;;;;;;;4887748;29;21078;-81
2021/03/23 15:29:11;;;;;;;10.50;2.15;;;;;;;;;;4894802;29;20040;-80
2021/03/23 15:31:38;;;;;;;7.80;1.80;;;;;;;;;;4910523;28;20043;-83
2021/03/23 15:34:05;;;;;;;7.45;2.08;;;;;;;;;;4896387;28;20047;-80
2021/03/23 15:36:38;;;;;;;7.85;2.00;;;;;;;;;;4921495;28;20074;-79
2021/03/23 15:39:15;;;;;;;10.93;1.98;;;;;;;;;;4919431;28;20047;-81
2021/03/23 15:41:42;;;;;;;7.78;1.77;;;;;;;;;;4921019;28;20035;-81
2021/03/23 15:44:10;;;;;;;8.55;1.80;;;;;;;;;;4907332;28;20114;-79
2021/03/23 15:46:37;;;;;;;8.50;1.77;;;;;;;;;;4905329;28;20051;-79
2021/03/23 15:49:04;;;;;;;10.68;2.30;;;;;;;;;;4903221;28;20568;-79
2021/03/23 15:51:35;;;;;;;11.23;2.40;;;;;;;;;;4906692;28;20080;-79
2021/03/23 15:54:05;;;;;;;8.60;2.17;;;;;;;;;;4897869;28;20035;-79
2021/03/23 15:56:36;;;;;;;8.10;2.08;;;;;;;;;;4902553;28;20182;-78
2021/03/23 15:59:04;;;;;;;8.25;2.30;;;;;;;;;;4906882;28;20093;-81